Joffre, Pennsylvania
Current Conditions -  °F | °C
As of 8:51 PM on Saturday 22 Nov 2014 (Local Time) from KPIT Reporting Station
Broken Clouds Broken Clouds  
Wind Chill:   Ceiling: 10000
Heat Index:   Visibility: 10mi
Dew Point: -1°   Wind: 6mph
Humidity: 52%   Direction: 190°S
Pressure: 30.1"   Gusts: NA
Location:  40.38°N, 80.36°W
Report Text: KPIT 230151Z 19005KT 10SM SCT065 BKN100 BKN220 08/M01 A3010 RMK AO2 SLP211 T00831011
Loading
Personal Weather Stations






























Interactive Weather Map New forecast layout! Learn more

10-Day Weather Forecast

Advertisements
Track Severe Weather on mobile